sensor_id;sensor_type;location;lat;lon;timestamp;P1;durP1;ratioP1;P2;durP2;ratioP2
12441;SDS011;6285;48.804;9.220;2023-08-06T00:02:09;12.20;;;7.65;;
12441;SDS011;6285;48.804;9.220;2023-08-06T00:04:36;8.23;;;7.43;;
12441;SDS011;6285;48.804;9.220;2023-08-06T00:07:05;9.02;;;7.32;;
12441;SDS011;6285;48.804;9.220;2023-08-06T00:09:31;7.43;;;6.72;;
12441;SDS011;6285;48.804;9.220;2023-08-06T00:11:59;9.88;;;7.55;;
12441;SDS011;6285;48.804;9.220;2023-08-06T00:14:26;10.75;;;7.80;;
12441;SDS011;6285;48.804;9.220;2023-08-06T00:16:53;8.68;;;7.82;;
12441;SDS011;6285;48.804;9.220;2023-08-06T00:19:20;9.60;;;7.53;;
12441;SDS011;6285;48.804;9.220;2023-08-06T00:21:47;8.57;;;7.78;;
12441;SDS011;6285;48.804;9.220;2023-08-06T00:24:15;8.43;;;7.55;;
12441;SDS011;6285;48.804;9.220;2023-08-06T00:26:42;9.18;;;8.20;;
12441;SDS011;6285;48.804;9.220;2023-08-06T00:29:09;8.98;;;7.97;;
12441;SDS011;6285;48.804;9.220;2023-08-06T00:31:36;12.77;;;8.20;;
12441;SDS011;6285;48.804;9.220;2023-08-06T00:34:03;10.20;;;8.05;;
12441;SDS011;6285;48.804;9.220;2023-08-06T00:36:31;9.60;;;8.65;;
12441;SDS011;6285;48.804;9.220;2023-08-06T00:38:58;10.00;;;8.93;;
12441;SDS011;6285;48.804;9.220;2023-08-06T00:41:26;9.63;;;8.02;;
12441;SDS011;6285;48.804;9.220;2023-08-06T00:43:53;11.27;;;7.95;;
12441;SDS011;6285;48.804;9.220;2023-08-06T00:46:20;9.95;;;8.63;;
12441;SDS011;6285;48.804;9.220;2023-08-06T00:48:47;9.43;;;8.27;;
12441;SDS011;6285;48.804;9.220;2023-08-06T00:51:14;11.30;;;8.15;;
12441;SDS011;6285;48.804;9.220;2023-08-06T00:53:43;7.35;;;6.65;;
12441;SDS011;6285;48.804;9.220;2023-08-06T00:56:10;8.05;;;6.78;;
12441;SDS011;6285;48.804;9.220;2023-08-06T00:58:39;7.45;;;6.75;;
12441;SDS011;6285;48.804;9.220;2023-08-06T01:01:06;8.65;;;6.78;;
12441;SDS011;6285;48.804;9.220;2023-08-06T01:03:33;8.70;;;7.40;;
12441;SDS011;6285;48.804;9.220;2023-08-06T01:06:00;9.48;;;8.13;;
12441;SDS011;6285;48.804;9.220;2023-08-06T01:08:30;9.43;;;8.50;;
12441;SDS011;6285;48.804;9.220;2023-08-06T01:11:10;8.77;;;7.88;;
12441;SDS011;6285;48.804;9.220;2023-08-06T01:13:46;10.90;;;8.70;;
12441;SDS011;6285;48.804;9.220;2023-08-06T01:16:15;11.80;;;8.88;;
12441;SDS011;6285;48.804;9.220;2023-08-06T01:18:43;10.48;;;8.57;;
12441;SDS011;6285;48.804;9.220;2023-08-06T01:21:12;8.80;;;7.60;;
12441;SDS011;6285;48.804;9.220;2023-08-06T01:23:39;9.43;;;7.45;;
12441;SDS011;6285;48.804;9.220;2023-08-06T01:26:10;10.23;;;7.35;;
12441;SDS011;6285;48.804;9.220;2023-08-06T01:28:42;8.32;;;6.95;;
12441;SDS011;6285;48.804;9.220;2023-08-06T01:31:15;8.27;;;6.50;;
12441;SDS011;6285;48.804;9.220;2023-08-06T01:33:45;9.68;;;5.82;;
12441;SDS011;6285;48.804;9.220;2023-08-06T01:36:15;6.07;;;4.72;;
12441;SDS011;6285;48.804;9.220;2023-08-06T01:42:05;5.60;;;4.63;;
12441;SDS011;6285;48.804;9.220;2023-08-06T01:44:33;5.38;;;4.85;;
12441;SDS011;6285;48.804;9.220;2023-08-06T06:42:54;2.20;;;0.90;;
12441;SDS011;6285;48.804;9.220;2023-08-06T06:45:21;1.17;;;0.52;;
12441;SDS011;6285;48.804;9.220;2023-08-06T06:47:49;1.17;;;0.70;;
12441;SDS011;6285;48.804;9.220;2023-08-06T06:50:16;1.88;;;0.50;;
12441;SDS011;6285;48.804;9.220;2023-08-06T06:52:43;2.10;;;0.80;;
12441;SDS011;6285;48.804;9.220;2023-08-06T07:31:30;2.42;;;0.75;;
12441;SDS011;6285;48.804;9.220;2023-08-06T07:33:57;2.05;;;0.60;;
12441;SDS011;6285;48.804;9.220;2023-08-06T07:36:25;1.10;;;0.80;;
12441;SDS011;6285;48.804;9.220;2023-08-06T07:38:52;0.95;;;0.60;;
12441;SDS011;6285;48.804;9.220;2023-08-06T07:41:21;1.27;;;0.55;;
12441;SDS011;6285;48.804;9.220;2023-08-06T07:43:48;1.67;;;0.80;;
12441;SDS011;6285;48.804;9.220;2023-08-06T07:46:15;1.10;;;0.70;;
12441;SDS011;6285;48.804;9.220;2023-08-06T07:48:44;1.35;;;0.77;;
12441;SDS011;6285;48.804;9.220;2023-08-06T07:51:11;1.40;;;0.70;;
12441;SDS011;6285;48.804;9.220;2023-08-06T07:53:38;0.93;;;0.63;;
12441;SDS011;6285;48.804;9.220;2023-08-06T07:56:05;1.27;;;1.00;;
12441;SDS011;6285;48.804;9.220;2023-08-06T07:58:32;3.35;;;1.48;;
12441;SDS011;6285;48.804;9.220;2023-08-06T08:00:59;0.88;;;0.70;;
12441;SDS011;6285;48.804;9.220;2023-08-06T08:03:26;0.90;;;0.60;;
12441;SDS011;6285;48.804;9.220;2023-08-06T08:05:55;1.17;;;0.80;;
12441;SDS011;6285;48.804;9.220;2023-08-06T08:08:25;1.05;;;0.50;;
12441;SDS011;6285;48.804;9.220;2023-08-06T08:10:52;2.80;;;0.50;;
12441;SDS011;6285;48.804;9.220;2023-08-06T08:13:20;2.45;;;0.65;;
12441;SDS011;6285;48.804;9.220;2023-08-06T08:15:47;0.73;;;0.50;;
12441;SDS011;6285;48.804;9.220;2023-08-06T08:18:14;1.15;;;0.40;;
12441;SDS011;6285;48.804;9.220;2023-08-06T08:20:41;0.60;;;0.30;;
12441;SDS011;6285;48.804;9.220;2023-08-06T08:23:10;1.05;;;0.43;;
12441;SDS011;6285;48.804;9.220;2023-08-06T08:25:36;0.75;;;0.40;;
12441;SDS011;6285;48.804;9.220;2023-08-06T08:28:03;0.60;;;0.30;;
12441;SDS011;6285;48.804;9.220;2023-08-06T08:30:31;0.70;;;0.40;;
12441;SDS011;6285;48.804;9.220;2023-08-06T08:32:58;0.40;;;0.30;;
12441;SDS011;6285;48.804;9.220;2023-08-06T08:35:25;1.50;;;0.35;;
12441;SDS011;6285;48.804;9.220;2023-08-06T08:37:52;1.10;;;0.35;;
12441;SDS011;6285;48.804;9.220;2023-08-06T08:40:20;0.52;;;0.30;;
12441;SDS011;6285;48.804;9.220;2023-08-06T08:42:51;1.30;;;1.20;;
12441;SDS011;6285;48.804;9.220;2023-08-06T08:45:18;0.73;;;0.30;;
12441;SDS011;6285;48.804;9.220;2023-08-06T08:47:48;0.60;;;0.28;;
12441;SDS011;6285;48.804;9.220;2023-08-06T08:50:15;0.40;;;0.20;;
12441;SDS011;6285;48.804;9.220;2023-08-06T08:52:44;2.33;;;0.30;;
12441;SDS011;6285;48.804;9.220;2023-08-06T08:55:14;0.40;;;0.30;;
12441;SDS011;6285;48.804;9.220;2023-08-06T08:57:43;0.65;;;0.40;;
12441;SDS011;6285;48.804;9.220;2023-08-06T09:00:09;0.80;;;0.32;;
12441;SDS011;6285;48.804;9.220;2023-08-06T09:02:39;0.55;;;0.20;;
12441;SDS011;6285;48.804;9.220;2023-08-06T09:05:08;1.77;;;0.20;;
12441;SDS011;6285;48.804;9.220;2023-08-06T09:07:38;1.75;;;0.35;;
12441;SDS011;6285;48.804;9.220;2023-08-06T09:10:08;0.45;;;0.22;;
12441;SDS011;6285;48.804;9.220;2023-08-06T09:12:38;0.47;;;0.40;;
12441;SDS011;6285;48.804;9.220;2023-08-06T09:15:07;0.45;;;0.30;;
12441;SDS011;6285;48.804;9.220;2023-08-06T09:17:34;1.70;;;0.20;;
12441;SDS011;6285;48.804;9.220;2023-08-06T09:20:08;0.85;;;0.30;;
12441;SDS011;6285;48.804;9.220;2023-08-06T09:22:36;0.73;;;0.47;;
12441;SDS011;6285;48.804;9.220;2023-08-06T09:25:03;0.82;;;0.30;;
12441;SDS011;6285;48.804;9.220;2023-08-06T09:27:35;0.60;;;0.40;;
12441;SDS011;6285;48.804;9.220;2023-08-06T09:30:03;1.02;;;0.30;;
12441;SDS011;6285;48.804;9.220;2023-08-06T09:32:45;0.50;;;0.25;;
12441;SDS011;6285;48.804;9.220;2023-08-06T09:35:16;0.38;;;0.35;;
12441;SDS011;6285;48.804;9.220;2023-08-06T09:37:43;1.05;;;0.60;;
12441;SDS011;6285;48.804;9.220;2023-08-06T09:40:23;0.68;;;0.32;;
12441;SDS011;6285;48.804;9.220;2023-08-06T09:42:51;1.05;;;0.35;;
12441;SDS011;6285;48.804;9.220;2023-08-06T09:45:18;2.00;;;0.43;;
12441;SDS011;6285;48.804;9.220;2023-08-06T09:47:48;0.57;;;0.50;;
12441;SDS011;6285;48.804;9.220;2023-08-06T09:50:16;1.00;;;0.20;;
12441;SDS011;6285;48.804;9.220;2023-08-06T09:52:44;1.00;;;0.80;;
12441;SDS011;6285;48.804;9.220;2023-08-06T09:55:11;0.50;;;0.40;;
12441;SDS011;6285;48.804;9.220;2023-08-06T09:57:39;0.35;;;0.30;;
12441;SDS011;6285;48.804;9.220;2023-08-06T10:00:07;0.73;;;0.30;;
12441;SDS011;6285;48.804;9.220;2023-08-06T10:02:35;0.57;;;0.40;;
12441;SDS011;6285;48.804;9.220;2023-08-06T10:05:04;0.30;;;0.20;;
12441;SDS011;6285;48.804;9.220;2023-08-06T10:07:31;0.35;;;0.20;;
12441;SDS011;6285;48.804;9.220;2023-08-06T10:09:58;1.27;;;0.40;;
12441;SDS011;6285;48.804;9.220;2023-08-06T10:12:25;0.47;;;0.30;;
12441;SDS011;6285;48.804;9.220;2023-08-06T10:14:55;0.60;;;0.40;;
12441;SDS011;6285;48.804;9.220;2023-08-06T10:17:23;0.93;;;0.65;;
12441;SDS011;6285;48.804;9.220;2023-08-06T10:19:50;0.20;;;0.20;;
12441;SDS011;6285;48.804;9.220;2023-08-06T10:22:21;1.40;;;0.57;;
12441;SDS011;6285;48.804;9.220;2023-08-06T10:24:49;0.40;;;0.20;;
12441;SDS011;6285;48.804;9.220;2023-08-06T10:27:20;1.38;;;0.95;;
12441;SDS011;6285;48.804;9.220;2023-08-06T10:29:49;0.85;;;0.40;;
12441;SDS011;6285;48.804;9.220;2023-08-06T10:32:16;0.28;;;0.20;;
12441;SDS011;6285;48.804;9.220;2023-08-06T10:34:54;1.20;;;0.70;;
12441;SDS011;6285;48.804;9.220;2023-08-06T10:37:24;0.40;;;0.40;;
12441;SDS011;6285;48.804;9.220;2023-08-06T10:40:00;0.52;;;0.30;;
12441;SDS011;6285;48.804;9.220;2023-08-06T10:42:27;0.50;;;0.40;;
12441;SDS011;6285;48.804;9.220;2023-08-06T10:47:41;0.50;;;0.30;;
12441;SDS011;6285;48.804;9.220;2023-08-06T10:50:10;1.52;;;0.47;;
12441;SDS011;6285;48.804;9.220;2023-08-06T10:52:40;0.25;;;0.10;;
12441;SDS011;6285;48.804;9.220;2023-08-06T10:55:07;1.05;;;0.30;;
12441;SDS011;6285;48.804;9.220;2023-08-06T10:57:35;1.85;;;0.70;;
12441;SDS011;6285;48.804;9.220;2023-08-06T11:00:03;0.50;;;0.30;;
12441;SDS011;6285;48.804;9.220;2023-08-06T11:02:33;1.45;;;0.40;;
12441;SDS011;6285;48.804;9.220;2023-08-06T11:05:04;0.63;;;0.22;;
12441;SDS011;6285;48.804;9.220;2023-08-06T11:07:32;0.75;;;0.30;;
12441;SDS011;6285;48.804;9.220;2023-08-06T11:10:04;0.60;;;0.40;;
12441;SDS011;6285;48.804;9.220;2023-08-06T11:12:32;0.80;;;0.30;;
12441;SDS011;6285;48.804;9.220;2023-08-06T11:15:00;1.88;;;0.68;;
12441;SDS011;6285;48.804;9.220;2023-08-06T11:17:27;0.68;;;0.68;;
12441;SDS011;6285;48.804;9.220;2023-08-06T11:19:55;0.90;;;0.40;;
12441;SDS011;6285;48.804;9.220;2023-08-06T11:22:22;0.70;;;0.50;;
12441;SDS011;6285;48.804;9.220;2023-08-06T11:24:50;0.75;;;0.50;;
12441;SDS011;6285;48.804;9.220;2023-08-06T11:27:18;0.98;;;0.55;;
12441;SDS011;6285;48.804;9.220;2023-08-06T11:29:45;0.50;;;0.40;;
12441;SDS011;6285;48.804;9.220;2023-08-06T11:32:12;0.50;;;0.50;;
12441;SDS011;6285;48.804;9.220;2023-08-06T11:34:39;0.70;;;0.50;;
12441;SDS011;6285;48.804;9.220;2023-08-06T11:37:06;0.63;;;0.43;;
12441;SDS011;6285;48.804;9.220;2023-08-06T11:39:35;0.60;;;0.43;;
12441;SDS011;6285;48.804;9.220;2023-08-06T11:42:03;0.63;;;0.63;;
12441;SDS011;6285;48.804;9.220;2023-08-06T11:44:33;1.02;;;0.80;;
12441;SDS011;6285;48.804;9.220;2023-08-06T11:47:02;0.93;;;0.80;;
12441;SDS011;6285;48.804;9.220;2023-08-06T11:49:38;0.80;;;0.73;;
12441;SDS011;6285;48.804;9.220;2023-08-06T11:52:10;0.90;;;0.70;;
12441;SDS011;6285;48.804;9.220;2023-08-06T11:54:39;0.80;;;0.75;;
12441;SDS011;6285;48.804;9.220;2023-08-06T11:57:06;1.23;;;1.00;;
12441;SDS011;6285;48.804;9.220;2023-08-06T11:59:36;2.15;;;0.93;;
12441;SDS011;6285;48.804;9.220;2023-08-06T12:02:04;3.10;;;1.10;;
12441;SDS011;6285;48.804;9.220;2023-08-06T12:04:31;1.40;;;1.15;;
12441;SDS011;6285;48.804;9.220;2023-08-06T12:07:04;2.15;;;0.95;;
12441;SDS011;6285;48.804;9.220;2023-08-06T12:09:33;1.20;;;0.88;;
12441;SDS011;6285;48.804;9.220;2023-08-06T12:12:01;1.30;;;1.10;;
12441;SDS011;6285;48.804;9.220;2023-08-06T12:14:29;2.60;;;1.33;;
12441;SDS011;6285;48.804;9.220;2023-08-06T12:16:58;2.17;;;0.95;;
12441;SDS011;6285;48.804;9.220;2023-08-06T12:19:25;2.55;;;1.20;;
12441;SDS011;6285;48.804;9.220;2023-08-06T12:21:52;1.52;;;1.10;;
12441;SDS011;6285;48.804;9.220;2023-08-06T12:24:19;1.35;;;1.00;;
12441;SDS011;6285;48.804;9.220;2023-08-06T12:26:46;1.25;;;1.10;;
12441;SDS011;6285;48.804;9.220;2023-08-06T12:29:13;3.55;;;1.30;;
12441;SDS011;6285;48.804;9.220;2023-08-06T12:31:40;3.13;;;1.48;;
12441;SDS011;6285;48.804;9.220;2023-08-06T12:34:09;2.30;;;1.13;;
12441;SDS011;6285;48.804;9.220;2023-08-06T12:36:36;1.90;;;1.23;;
12441;SDS011;6285;48.804;9.220;2023-08-06T12:39:03;1.20;;;1.10;;
12441;SDS011;6285;48.804;9.220;2023-08-06T12:41:30;1.92;;;1.60;;
12441;SDS011;6285;48.804;9.220;2023-08-06T12:43:57;1.20;;;1.08;;
12441;SDS011;6285;48.804;9.220;2023-08-06T12:46:24;2.90;;;1.42;;
12441;SDS011;6285;48.804;9.220;2023-08-06T12:48:51;1.60;;;1.23;;
12441;SDS011;6285;48.804;9.220;2023-08-06T12:51:20;1.92;;;1.60;;
12441;SDS011;6285;48.804;9.220;2023-08-06T12:53:46;1.38;;;1.05;;
12441;SDS011;6285;48.804;9.220;2023-08-06T12:56:13;1.80;;;1.10;;
12441;SDS011;6285;48.804;9.220;2023-08-06T12:58:40;2.55;;;1.42;;
12441;SDS011;6285;48.804;9.220;2023-08-06T13:01:08;2.00;;;1.80;;
12441;SDS011;6285;48.804;9.220;2023-08-06T13:03:35;0.98;;;0.60;;
12441;SDS011;6285;48.804;9.220;2023-08-06T13:06:02;1.00;;;0.70;;
12441;SDS011;6285;48.804;9.220;2023-08-06T13:08:31;0.75;;;0.63;;
12441;SDS011;6285;48.804;9.220;2023-08-06T13:10:57;1.50;;;0.68;;
12441;SDS011;6285;48.804;9.220;2023-08-06T13:13:24;0.70;;;0.70;;
12441;SDS011;6285;48.804;9.220;2023-08-06T13:15:52;1.20;;;0.68;;
12441;SDS011;6285;48.804;9.220;2023-08-06T13:18:19;0.88;;;0.70;;
12441;SDS011;6285;48.804;9.220;2023-08-06T13:20:46;0.75;;;0.70;;
12441;SDS011;6285;48.804;9.220;2023-08-06T13:23:14;1.92;;;0.90;;
12441;SDS011;6285;48.804;9.220;2023-08-06T13:25:43;2.15;;;1.00;;
12441;SDS011;6285;48.804;9.220;2023-08-06T13:28:10;0.70;;;0.70;;
12441;SDS011;6285;48.804;9.220;2023-08-06T13:30:38;0.60;;;0.55;;
12441;SDS011;6285;48.804;9.220;2023-08-06T13:33:07;1.60;;;0.80;;
12441;SDS011;6285;48.804;9.220;2023-08-06T13:35:34;1.85;;;0.70;;
12441;SDS011;6285;48.804;9.220;2023-08-06T13:38:01;1.05;;;0.68;;
12441;SDS011;6285;48.804;9.220;2023-08-06T13:40:28;1.60;;;0.70;;
12441;SDS011;6285;48.804;9.220;2023-08-06T13:42:57;1.92;;;1.40;;
12441;SDS011;6285;48.804;9.220;2023-08-06T13:45:24;1.67;;;1.10;;
12441;SDS011;6285;48.804;9.220;2023-08-06T15:21:11;1.52;;;0.60;;
12441;SDS011;6285;48.804;9.220;2023-08-06T15:23:38;1.08;;;0.95;;
12441;SDS011;6285;48.804;9.220;2023-08-06T15:26:05;1.08;;;0.50;;
12441;SDS011;6285;48.804;9.220;2023-08-06T15:28:32;0.63;;;0.60;;
12441;SDS011;6285;48.804;9.220;2023-08-06T15:30:59;1.33;;;0.60;;
